Daichi Yamane

Chefscout - Gamba Osaka
3 Dez 2028
Sonntag
Verarbeitung

Persönlichkeit

Anpassungsfähigkeit (4) Ehrgeiz (8) Kontroverse (18) Loyalität (7) Druck (1) Professionalität (11) Fairness (8) Temperament (15)

Profil

Trainerstil Demokratisch
Lizenz Kontinentale A
Entschlossenheit 5
Menschenführung 9
Motivation 11
Disziplin 9
Arbeitszufriedenheit
88%
Ermüdung
0%
Rolle Chefscout
Gehalt 28.6K p/W
Vertrag 14.03.2029

Leistung

Verhalten Gut
Trainingseffektivität
37%
Spielerentwicklung
50%
Verletzungsprävention
45%
Taktische Umsetzung
50%

Letzte Ereignisse

Nahm an einer Scouting-Besprechung teil jetzt
Empfahl ein Transferziel jetzt
Empfahl ein Transferziel jetzt
Empfahl ein Transferziel jetzt
Empfahl ein Transferziel jetzt
Empfahl ein Transferziel jetzt
Empfahl ein Transferziel jetzt
Spieler begutachtet jetzt

Aktuell beobachtet

220
Spieler Verein Status Fähigkeit Vertrauen Beobachtet Zuletzt beobachtet Letzte Stimme
Matias Siltanen Malmo FF Aktiv 124 / 127 40% 5 01.12.2028 -
José Neto Benfica Aktiv 135 / 135 40% 2 01.12.2028 -
Francisco Machis Llaneros Aktiv 91 / 84 40% 3 30.11.2028 -
Matías Magdaleno Estudiantes Aktiv 104 / 120 40% 1 30.11.2028 -
Cheveyo Tsawa Club Brugge Aktiv 131 / 135 40% 1 30.11.2028 -
Tiago Gordillo San Miguel Aktiv 90 / 95 40% 2 28.11.2028 -
Louis Page Leicester City Aktiv 132 / 145 40% 1 28.11.2028 -
Jorge Salinas Racing Santander Aktiv 127 / 148 40% 1 28.11.2028 -
Azizbek To'lqinbekov Bunyodkor Aktiv 92 / 104 40% 4 27.11.2028 -
Gideon Manaseh Ikorodu City Aktiv 85 / 100 40% 4 27.11.2028 -
Buba Sangaré Elche Aktiv 146 / 143 40% 3 27.11.2028 -
Diego León Rotherham United Aktiv 136 / 136 40% 1 23.11.2028 -
Davinchi Getafe Aktiv 121 / 135 40% 1 23.11.2028 -
Chris Rigg West Ham United Aktiv 142 / 148 40% 1 22.11.2028 -
Alejandro Tapia Central Norte Aktiv 81 / 87 40% 1 22.11.2028 -
Giovanni Leoni Lincoln City Aktiv 136 / 154 40% 2 21.11.2028 -
Estanislao López Colón Aktiv 94 / 94 40% 2 21.11.2028 -
Noah Markmann Esbjerg Aktiv 129 / 127 40% 1 21.11.2028 -
Felipe Varela Trujillanos Aktiv 84 / 96 40% 1 19.11.2028 -
Santino Baldassarri Orenburg Aktiv 90 / 99 40% 1 19.11.2028 -
Aytor Herrera Mineros de Guayana Aktiv 87 / 90 40% 1 19.11.2028 -
Ivan Borges Defensores Aktiv 83 / 89 40% 2 17.11.2028 -
Benito Paklayan Alvarado Aktiv 79 / 85 40% 1 17.11.2028 -
Miguel Figueiredo Benfica Aktiv 129 / 133 40% 3 16.11.2028 -
Rene Hrvatin Istra 1961 Aktiv 107 / 106 40% 1 16.11.2028 -
Mateo Faure BATE Aktiv 86 / 91 40% 1 15.11.2028 -
Celías Ingenthron Platense Aktiv 118 / 130 40% 1 15.11.2028 -
Markus Walker FC Nordsjaelland Aktiv 116 / 125 40% 1 13.11.2028 -
Juan Camilo Córdoba Deportivo Pereira Aktiv 101 / 89 40% 1 13.11.2028 -
Hijiri Kato Omiya Ardija Verhandlung 121 / 125 72% 1 14.08.2028 Befürworten
Trey Nyoni Rotherham United Aktiv 143 / 143 40% 1 14.08.2028 -
Roberto Medina La Equidad Verhandlung 105 / 108 40% 1 14.08.2028 -
Joel Ezra Enyimba Aktiv 88 / 111 40% 5 08.08.2028 -
Abubakar Adams Aduana Stars Aktiv 98 / 86 40% 1 08.08.2028 -
Daniel Banjaqui Benfica Aktiv 124 / 139 40% 1 31.07.2028 -
Bernardo Lima Porto Aktiv 107 / 121 40% 1 31.07.2028 -
Nicolò Moranduzzo Renate Aktiv 85 / 104 40% 1 21.07.2028 -
Dean David Yokohama F. Marinos Aktiv 118 / 116 69% 1 14.02.2028 Befürworten
Andrey Ivlev Nizhniy Novgorod Aktiv 106 / 115 40% 1 31.01.2028 -
Tyler Fletcher Rotherham United Aktiv 116 / 116 40% 1 31.01.2028 -
Jan Bürger Northampton Town Aktiv 117 / 124 40% 2 26.01.2028 -
Jin Okumura Shonan Bellmare Aktiv 112 / 111 69% 1 24.01.2028 Befürworten
Ryota Izumori Sagan Tosu Aktiv 113 / 112 40% 2 05.01.2028 -
Mauro Silveira Junior Aktiv 135 / 123 40% 4 05.01.2028 -
Mao Hosoya Santos Aktiv 134 / 135 67% 1 05.01.2028 Befürworten
Facundo Torres Millonarios Aktiv 134 / 134 67% 1 05.01.2028 Befürworten
Pontus Dahlberg Lillestrom Aktiv 112 / 120 40% 2 04.01.2028 -
Josh Keeley Luton Town Aktiv 140 / 133 40% 1 04.01.2028 -
Tomoki Hayakawa Kashima Antlers Aktiv 140 / 137 40% 4 03.01.2028 -
Thomas Glover Omiya Ardija Aktiv 113 / 113 40% 2 03.01.2028 -
Juan Moreno La Luz Aktiv 117 / 114 40% 3 02.01.2028 -
Esteban Glellel Quilmes Aktiv 117 / 120 40% 2 02.01.2028 -
Juan Pablo Cisternas Antofagasta Aktiv 100 / 109 40% 1 02.01.2028 -
Facundo Vila Estudiantes Aktiv 108 / 110 40% 2 01.01.2028 -
Emiliano González Almagro Aktiv 111 / 118 40% 2 01.01.2028 -
Alejandro Rodríguez Melgar Aktiv 122 / 122 40% 1 01.01.2028 -
Matías Arias Vélez Aktiv 102 / 123 40% 4 31.12.2027 -
Luciano Jachfe Nueva Chicago Aktiv 122 / 114 40% 2 31.12.2027 -
Ani Ozoemena Rivers United Aktiv 112 / 110 40% 1 31.12.2027 -
Iván Villar Granada Aktiv 146 / 135 40% 1 31.12.2027 -
Abdulrahman Hamisu Niger Tornadoes Aktiv 93 / 94 40% 1 31.12.2027 -
Rafael Moreno Atletico Venezuela Aktiv 110 / 113 40% 5 29.12.2027 -
Christ Wawa Gefle Aktiv 115 / 109 40% 3 29.12.2027 -
Ibrahim Fullah Charlton Athletic Aktiv 123 / 130 40% 2 29.12.2027 -
Lautaro Petruchi Gimnasia y Esgrima Aktiv 107 / 119 40% 1 29.12.2027 -
Nupe Godstime Bayelsa United Aktiv 79 / 102 40% 4 28.12.2027 -
Dylan Cabral Arsenal Aktiv 101 / 108 40% 3 26.12.2027 -
Bruno Antúnez Boston River Aktiv 124 / 122 40% 2 26.12.2027 -
Vincent Edafe Warri Wolves Aktiv 102 / 106 40% 1 26.12.2027 -
Francisco Salerno Defensores Unidos Aktiv 103 / 107 40% 1 26.12.2027 -
Dilan Godoy Beitar Jerusalem Aktiv 126 / 116 40% 1 26.12.2027 -
Jeremías Merlo Gimnasia La Plata Aktiv 134 / 120 40% 5 25.12.2027 -
David Eke Enyimba Aktiv 94 / 92 40% 4 25.12.2027 -
Lucas Arcanjo Vitória Aktiv 132 / 128 40% 2 23.12.2027 -
Federico Losas Chacarita Juniors Aktiv 109 / 112 40% 1 23.12.2027 -
Iñaki Peña Urawa Reds Aktiv 149 / 142 40% 2 22.12.2027 -
Nicolás Barros Schelotto Gimnasia La Plata Aktiv 112 / 130 40% 2 21.12.2027 -
Nahuel Pezzini Arsenal Aktiv 113 / 111 40% 1 21.12.2027 -
Alex Verón Vélez Aktiv 113 / 124 40% 5 20.12.2027 -
Josh Nichols Oldham Athletic Aktiv 131 / 123 40% 1 20.12.2027 -
Emmanuel Ndubueze Shooting Stars Aktiv 87 / 103 40% 3 18.12.2027 -
Roberto Ramírez Godoy Cruz Aktiv 123 / 122 40% 2 18.12.2027 -
Renzo Bacchia Racing Aktiv 131 / 116 40% 1 17.12.2027 -
Luka Andrade Montevideo City Torque Aktiv 104 / 107 40% 3 16.12.2027 -
Seb Ferdinand Rotherham United Aktiv 120 / 128 40% 1 14.12.2027 -
Rio Ngumoha Plymouth Argyle Aktiv 127 / 141 40% 1 14.12.2027 -
Chimobi Igwilo Rangers International Aktiv 87 / 102 40% 2 13.12.2027 -
Luighi Palmeiras Aktiv 118 / 113 40% 1 13.12.2027 -
Keisuke Osako Sanfrecce Hiroshima Aktiv 149 / 139 40% 1 12.12.2027 -
Mauro Casoli Talleres Aktiv 103 / 104 40% 1 12.12.2027 -
Mateo Peralta Danubio Aktiv 114 / 115 40% 3 10.12.2027 -
Kerim Alajbegović Modena Aktiv 136 / 130 40% 1 10.12.2027 -
Gonzalo Falcón Cienciano Aktiv 105 / 123 40% 1 08.12.2027 -
Cristopher Varela Deportivo La Guaira Aktiv 128 / 129 40% 1 08.12.2027 -
John Amah Plateau United Aktiv 95 / 101 40% 1 08.12.2027 -
Geovanni Banguera Deportivo Pasto Aktiv 112 / 123 40% 1 06.12.2027 -
Nicolás Sumavil Platense Aktiv 115 / 122 40% 1 06.12.2027 -
Kabiru Abdullahi Barau Aktiv 82 / 93 40% 3 30.11.2027 -
Valentino Acuña Newell's Old Boys Aktiv 105 / 118 40% 2 28.11.2027 -
Ryan McAidoo Oldham Athletic Aktiv 110 / 128 40% 1 28.11.2027 -
Maren Kefas Plateau United Aktiv 94 / 90 40% 2 26.11.2027 -
Albert Aleksanjan IFK Norrkoping Aktiv 91 / 108 40% 1 22.11.2027 -
Hassan Beja AFC Leopards Aktiv 93 / 97 40% 1 19.11.2027 -
Onyeuche Ujunwa Ikorodu City Aktiv 82 / 101 40% 4 17.11.2027 -
Keyano Marrah Hammarby Aktiv 100 / 96 40% 1 17.11.2027 -
Giovanni Baroni Talleres Aktiv 113 / 121 40% 2 16.11.2027 -
Adrian Skogmar Malmo FF Aktiv 115 / 124 40% 4 11.11.2027 -
Victor Hernandez Santa Fe Aktiv 128 / 126 40% 5 10.11.2027 -
Tiago Pucciarelli IF Elfsborg Aktiv 97 / 101 40% 1 09.11.2027 -
Tomás Aranda Boca Juniors Aktiv 105 / 118 40% 1 08.11.2027 -
Siyabonga Mabena Bidvest Wits Aktiv 112 / 120 40% 1 07.11.2027 -
Lucas Camejo River Plate Aktiv 89 / 91 40% 2 06.11.2027 -
Juan Rodríguez Cerro Largo Aktiv 89 / 104 40% 1 01.11.2027 -
Nahuel Leivas Montevideo City Torque Aktiv 109 / 107 40% 1 07.10.2027 -
Issa Yusuf Shooting Stars Aktiv 96 / 95 40% 1 07.10.2027 -
Yiandro Raap Ilves Aktiv 95 / 100 40% 2 20.09.2027 -
Alejandro Leiva Patronato Aktiv 105 / 104 40% 2 20.09.2027 -
Felipe Faúndez O'Higgins Aktiv 106 / 102 40% 2 18.09.2027 -
Yerry Gonzalez Universitario Popayan Aktiv 91 / 88 40% 1 16.09.2027 -
Nazareno Roselli Defensa y Justicia Aktiv 105 / 122 40% 1 16.09.2027 -
Jon Esenga IF Elfsborg Aktiv 97 / 102 40% 1 15.09.2027 -
José Cavadia Aguilas Doradas Aktiv 105 / 119 40% 1 15.09.2027 -
Yury Oyarzo Racing Aktiv 79 / 94 40% 1 14.09.2027 -
Hosea Michael Remo Stars Aktiv 77 / 92 40% 1 14.09.2027 -
Godwin Oham Warri Wolves Aktiv 98 / 89 40% 1 11.09.2027 -
Mohamed Moussa Koïta Mathare United Aktiv 89 / 107 40% 1 09.09.2027 -
Olaniyi Saheed Kwara United Aktiv 99 / 106 40% 1 09.09.2027 -
Ignacio Fernández Boston River Aktiv 90 / 100 40% 1 09.09.2027 -
Luciano Posadas Central Córdoba SdE Aktiv 90 / 94 40% 1 07.09.2027 -
Mpho Khethang FC Diarra Aktiv 84 / 89 40% 1 07.09.2027 -
Chibueze Oputa Rangers International Aktiv 100 / 86 40% 1 06.09.2027 -
Pedro de la Vega Columbus Crew Aktiv 133 / 134 66% 1 22.07.2027 Befürworten
Tiago Freitas Benfica Aktiv 115 / 114 40% 1 08.02.2027 -
Kamaldeen Atiemo Wa All Stars Aktiv 108 / 100 40% 1 08.02.2027 -
Sampson Dweh Mallorca Aktiv 133 / 134 66% 1 05.01.2027 Befürworten
Samuel Edozie Southampton Aktiv 117 / 134 40% 1 04.01.2027 -
Richard Koné Queens Park Rangers Aktiv 115 / 128 40% 1 03.01.2027 -
Ivan Schranz Slavia Prague Aktiv 141 / 134 40% 2 01.01.2027 -
Bamba Dieng Crvena Zvezda Aktiv 139 / 125 40% 4 01.01.2027 -
Ilyas Ansah Hull City Aktiv 136 / 134 40% 4 01.01.2027 -
Peter Shalulile Mamelodi Sundowns Aktiv 128 / 125 40% 6 31.12.2026 -
Bosun Lawal Stoke City Aktiv 129 / 118 40% 1 31.12.2026 -
Malik Mothersille Stockport County Aktiv 107 / 109 40% 1 29.12.2026 -
Callum Robinson Poltava Aktiv 121 / 106 40% 4 28.12.2026 -
Joe Gelhardt Hull City Aktiv 133 / 135 40% 3 28.12.2026 -
Tyrhys Dolan Espanyol Aktiv 125 / 131 40% 2 28.12.2026 -
Emmanuel Boateng Hapoel Tel Aviv Aktiv 113 / 118 40% 1 28.12.2026 -
Welington Southampton Aktiv 127 / 123 40% 1 27.12.2026 -
Sam Bell Bristol City Aktiv 116 / 116 40% 1 25.12.2026 -
Juan Bisanz Huracán Aktiv 119 / 135 40% 1 24.12.2026 -
Scott Twine Bristol City Aktiv 110 / 122 40% 1 24.12.2026 -
Reda Khadra Qarabag Aktiv 139 / 139 40% 1 24.12.2026 -
Alfie Doughty Millwall Aktiv 116 / 124 40% 1 23.12.2026 -
Oswin Appollis Orlando Pirates Aktiv 123 / 116 40% 1 23.12.2026 -
Josh Windass Wrexham Aktiv 118 / 130 40% 1 21.12.2026 -
Matej Trusa DAC Dunajska Streda Aktiv 111 / 118 40% 1 19.12.2026 -
Tyreece Campbell Charlton Athletic Aktiv 123 / 121 40% 1 18.12.2026 -
Kyle Wootton Stockport County Aktiv 121 / 129 40% 1 18.12.2026 -
Cameron Archer Southampton Aktiv 122 / 122 40% 1 17.12.2026 -
Tariq Lamptey Queens Park Rangers Aktiv 140 / 140 40% 1 15.12.2026 -
Finn Azaz Southampton Aktiv 133 / 134 40% 1 15.12.2026 -
Bongani Khune SuperSport United Aktiv 134 / 129 40% 5 13.12.2026 -
Youssoufa Moukoko FC Copenhagen Aktiv 118 / 137 40% 1 13.12.2026 -
Marezi Portsmouth Aktiv 121 / 115 40% 1 12.12.2026 -
Jhon Córdoba Krasnodar Aktiv 152 / 142 40% 1 10.12.2026 -
Petar Stanić Ludogorets Aktiv 136 / 144 40% 1 09.12.2026 -
Milan van Ewijk Coventry City Aktiv 126 / 126 40% 1 08.12.2026 -
Patrick Agyemang Derby County Aktiv 120 / 113 40% 2 07.12.2026 -
Federico Martínez MFK Ruzomberok Aktiv 113 / 123 40% 1 02.12.2026 -
Elijah Adebayo Luton Town Aktiv 129 / 119 40% 1 02.12.2026 -
Ola Solbakken FC Nordsjaelland Aktiv 129 / 119 40% 1 29.11.2026 -
Heung-Min Son Los Angeles Football Club Aktiv 153 / 144 40% 5 26.11.2026 -
Dale Taylor Blackpool Aktiv 100 / 116 40% 1 26.11.2026 -
Zian Flemming Ipswich Town Aktiv 141 / 138 40% 1 23.11.2026 -
Etiosa Ighodaro Kaizer Chiefs Aktiv 100 / 111 40% 1 20.11.2026 -
Petter Nosa Dahl Rapid Wien Aktiv 115 / 127 40% 1 19.11.2026 -
Bienvenue Kanakimana Zbrojovka Brno Aktiv 115 / 119 40% 1 19.11.2026 -
Morgan Guilavogui Real Salt Lake Aktiv 135 / 133 40% 6 18.11.2026 -
Ivo Mammini Beitar Jerusalem Aktiv 112 / 125 40% 1 18.11.2026 -
Václav Jurečka Banik Ostrava Aktiv 127 / 123 40% 1 18.11.2026 -
Assad Al Hamlawi Universitatea Craiova Aktiv 136 / 116 40% 1 15.11.2026 -
Fiete Arp OB Aktiv 122 / 130 40% 1 15.11.2026 -
Takuma Asano Sanfrecce Hiroshima Aktiv 131 / 136 40% 3 14.11.2026 -
Wessam Abou Ali Columbus Crew Aktiv 121 / 134 40% 1 14.11.2026 -
Yuta Goke Vissel Kobe Aktiv 114 / 125 40% 3 13.11.2026 -
Luka Jović CFR Cluj Aktiv 147 / 132 40% 1 13.11.2026 -
Armstrong Oko-Flex Levski Aktiv 127 / 113 40% 1 09.11.2026 -
Haris Tabaković Red Bull Salzburg Aktiv 136 / 140 40% 1 08.11.2026 -
Vegard Erlien Tromso Aktiv 117 / 127 40% 1 06.11.2026 -
Daniel Karlsbakk Sarpsborg 08 Aktiv 112 / 132 40% 1 06.11.2026 -
Marko Livaja Hajduk Split Aktiv 125 / 123 40% 2 03.11.2026 -
Koki Ogawa Jubilo Iwata Aktiv 124 / 116 40% 3 27.10.2026 -
Daiya Tono Yokohama F. Marinos Aktiv 133 / 127 40% 1 26.10.2026 -
Myrto Uzuni Austin FC Aktiv 137 / 135 40% 3 25.10.2026 -
Jesus Ferreira Seattle Sounders Aktiv 132 / 138 40% 2 23.10.2026 -
Martín Ojeda Orlando City Aktiv 134 / 137 40% 4 21.10.2026 -
Petar Musa FC Dallas Aktiv 125 / 143 40% 2 19.10.2026 -
Teruhito Nakagawa FC Tokyo Aktiv 122 / 121 40% 1 19.10.2026 -
Cheikh Sabaly Vancouver Whitecaps Aktiv 139 / 123 40% 1 16.10.2026 -
Alexey Miranchuk Atlanta United FC Aktiv 141 / 151 40% 3 14.10.2026 -
Shu Morooka Avispa Fukuoka Aktiv 106 / 116 40% 1 13.10.2026 -
Dejan Joveljić Seattle Sounders Aktiv 130 / 133 40% 1 10.10.2026 -
Talles Magno New York City Aktiv 116 / 134 40% 2 09.10.2026 -
Shunta Araki Vegalta Sendai Aktiv 121 / 109 40% 1 07.10.2026 -
Daiju Sasaki Vissel Kobe Aktiv 121 / 124 40% 1 03.10.2026 -
Carles Gil New England Revolution Aktiv 146 / 145 40% 1 30.09.2026 -
Timo Werner San Jose Earthquakes Aktiv 117 / 118 40% 1 28.09.2026 -
Erison Kawasaki Frontale Aktiv 138 / 127 40% 1 27.09.2026 -
Victor Olatunji Real Salt Lake Aktiv 106 / 117 40% 3 26.09.2026 -
Tadeo Allende Inter Miami CF Aktiv 134 / 128 40% 2 23.09.2026 -
Mbekezeli Mbokazi Chicago Fire Aktiv 116 / 123 40% 1 19.09.2026 -
Yoshinori Muto Vissel Kobe Aktiv 131 / 127 40% 1 19.09.2026 -
Alexander Aravena Portland Timbers Aktiv 125 / 125 40% 1 18.09.2026 -
João Klauss LA Galaxy Aktiv 114 / 119 40% 1 16.09.2026 -
Bénie Traoré New York City Aktiv 129 / 126 40% 1 12.09.2026 -
Kelvin Yeboah Minnesota United FC Aktiv 114 / 117 40% 1 10.09.2026 -
Marcos Junior Sanfrecce Hiroshima Aktiv 119 / 127 40% 1 09.09.2026 -
Lewis Morgan Toronto FC Aktiv 136 / 133 40% 1 07.09.2026 -
Alonso Martínez New York City Aktiv 109 / 118 40% 1 03.08.2026 -
Yuki Kakita Kashima Antlers Aktiv 128 / 135 40% 1 03.08.2026 -